Airfield :
LOGIN :

Register | Disclaimer

   EN    FR    IT 

 










Legend :    VFR   Marginal VFR   IFR   Intensive IFR   Very Intensive IFR
Visi :
Ceiling :
>= 8 km
>= 3000ft
5 to 8 km
1000 to 3000 ft
1500m to 5 km
500 to 1000 ft
800 to 1500m
200 to 500 ft
< 800m
< 200 ft
Symbols :   Thunderstorms  Fog  Heavy snow  Heavy precipitations  Wind > 20 kt
SIGMETs :     Misc.  Thunderstorms  Icing  Turbulence  Mountain Waves  Volcanic Ashes






- Airport Elevation : 273 ft


EGXT - RAF Wittering Stamford

CURRENT METAR :
  • 280750Z 20004KT 0300 FG OVC002 05/05 Q1006 RMK RED

EXPIRED METARs :
  • 280720Z 22008KT 0200 FG OVC001 05/05 Q1006 RMK RED
  • 280650Z AUTO 20006KT 2000 FG OVC001/// 05/05 Q1006
  • 280620Z AUTO 18005KT 0150 FG BKN001/// 04/04 Q1006
  • 280550Z AUTO 20005KT 1600 BR OVC001/// 05/05 Q1006
  • 280520Z AUTO 22008KT 2100 BR OVC001/// 06/06 Q1006
  • 280450Z AUTO 20007KT 3200 REFG OVC001/// 06/06 Q1006

TAF TAF EGXT
Valid from the 28 at 07:00 until the 28 at 15:00 UTC


280542Z 2807/2815 21004KT 0200 FG VV///
PROB40
TEMPO 2807/2809 3000 BR BKN002
TEMPO 2809/2811 4000 BR BKN004
BECMG 2811/2813 9999 NSW FEW006
TEMPO 2813/2815 BKN006



MET'MAP, your aeronautical weather chart ! - Copyright ORBIFLY December 2007 - Disclaimer

ORBIFLY MET'MAP TEAM :

Programming & Development : Alexandra Zaïnal
Original concept : Baudouin d'Aumeries
Technical & hardware support : Manuel Goepfert
Assistance : Marc-Olivier Méhu




SOURCES & CREDITS :

   NOAA